Airfield :
LOGIN :

Register | Disclaimer

   EN    FR    IT 

 










Legend :    VFR   Marginal VFR   IFR   Intensive IFR   Very Intensive IFR
Visi :
Ceiling :
>= 8 km
>= 3000ft
5 to 8 km
1000 to 3000 ft
1500m to 5 km
500 to 1000 ft
800 to 1500m
200 to 500 ft
< 800m
< 200 ft
Symbols :   Thunderstorms  Fog  Heavy snow  Heavy precipitations  Wind > 20 kt
SIGMETs :     Misc.  Thunderstorms  Icing  Turbulence  Mountain Waves  Volcanic Ashes






- Airport Elevation : 359 ft
- IATA code : BVA


LFOB - Beauvais

CURRENT METAR :
  • 051600Z AUTO 22008KT 180V260 CAVOK 30/05 Q1014 NOSIG

EXPIRED METARs :
  • 051530Z AUTO 22009KT 180V270 CAVOK 30/05 Q1014 NOSIG
  • 051500Z AUTO 20008KT 170V260 CAVOK 30/05 Q1014 NOSIG
  • 051430Z AUTO 20009KT 170V240 CAVOK 30/04 Q1014 NOSIG
  • 051400Z AUTO 22013KT 180V260 CAVOK 29/04 Q1015 NOSIG
  • 051330Z AUTO 19009KT 110V230 CAVOK 29/05 Q1015 NOSIG

TAF TAF LFOB
Valid from the 05 at 12:00 until the 06 at 12:00 UTC


051100Z 0512/0612 20012KT CAVOK
BECMG 0520/0522 VRB02KT
BECMG 0610/0612 16010KT
ATIS : +33 3 44 11 49 28



MET'MAP, your aeronautical weather chart ! - Copyright ORBIFLY December 2007 - Disclaimer

ORBIFLY MET'MAP TEAM :

Programming & Development : Alexandra Zaïnal
Concept & original design : Baudouin d'Aumeries
Assistance for programming : Marc-Olivier Méhu
Technical & hardware support : Manuel Goepfert

Contact : metmap@orbifly.com




SOURCES & CREDITS :

   NOAA